sensor_id;sensor_type;location;lat;lon;timestamp;pressure;altitude;pressure_sealevel;temperature;humidity
50682;BME280;36779;52.168;20.878;2023-06-14T00:02:20;100638.59;;;12.80;63.64
50682;BME280;36779;52.168;20.878;2023-06-14T00:04:55;100641.16;;;12.76;63.76
50682;BME280;36779;52.168;20.878;2023-06-14T00:07:39;100634.55;;;12.73;63.78
50682;BME280;36779;52.168;20.878;2023-06-14T00:10:15;100639.23;;;12.72;63.88
50682;BME280;36779;52.168;20.878;2023-06-14T00:12:51;100634.78;;;12.72;63.90
50682;BME280;36779;52.168;20.878;2023-06-14T00:15:30;100632.83;;;12.72;63.87
50682;BME280;36779;52.168;20.878;2023-06-14T00:18:03;100628.79;;;12.71;63.69
50682;BME280;36779;52.168;20.878;2023-06-14T00:20:36;100628.17;;;12.71;63.96
50682;BME280;36779;52.168;20.878;2023-06-14T00:23:13;100627.23;;;12.71;63.83
50682;BME280;36779;52.168;20.878;2023-06-14T00:25:55;100625.91;;;12.71;63.92
50682;BME280;36779;52.168;20.878;2023-06-14T00:28:31;100628.44;;;12.74;63.95
50682;BME280;36779;52.168;20.878;2023-06-14T00:31:05;100626.33;;;12.73;64.19
50682;BME280;36779;52.168;20.878;2023-06-14T00:33:38;100624.61;;;12.72;64.01
50682;BME280;36779;52.168;20.878;2023-06-14T00:36:21;100621.64;;;12.72;64.06
50682;BME280;36779;52.168;20.878;2023-06-14T00:38:56;100616.63;;;12.74;64.14
50682;BME280;36779;52.168;20.878;2023-06-14T00:41:30;100617.59;;;12.75;64.25
50682;BME280;36779;52.168;20.878;2023-06-14T00:44:06;100617.66;;;12.74;64.03
50682;BME280;36779;52.168;20.878;2023-06-14T00:46:40;100616.48;;;12.75;64.32
50682;BME280;36779;52.168;20.878;2023-06-14T00:49:15;100615.96;;;12.73;64.19
50682;BME280;36779;52.168;20.878;2023-06-14T00:51:52;100616.90;;;12.73;64.09
50682;BME280;36779;52.168;20.878;2023-06-14T00:54:31;100615.63;;;12.70;64.21
50682;BME280;36779;52.168;20.878;2023-06-14T00:57:09;100619.15;;;12.67;64.30
50682;BME280;36779;52.168;20.878;2023-06-14T00:59:45;100619.34;;;12.65;64.38
50682;BME280;36779;52.168;20.878;2023-06-14T01:02:21;100621.11;;;12.65;64.41
50682;BME280;36779;52.168;20.878;2023-06-14T01:04:55;100624.29;;;12.66;64.49
50682;BME280;36779;52.168;20.878;2023-06-14T01:07:38;100623.11;;;12.65;64.45
50682;BME280;36779;52.168;20.878;2023-06-14T01:10:36;100621.73;;;12.74;64.71
50682;BME280;36779;52.168;20.878;2023-06-14T01:13:23;100626.46;;;12.86;64.71
50682;BME280;36779;52.168;20.878;2023-06-14T01:16:00;100626.67;;;12.92;64.82
50682;BME280;36779;52.168;20.878;2023-06-14T01:18:34;100629.86;;;13.01;65.00
50682;BME280;36779;52.168;20.878;2023-06-14T01:21:06;100629.98;;;13.03;64.79
50682;BME280;36779;52.168;20.878;2023-06-14T01:23:55;100622.19;;;12.94;64.45
50682;BME280;36779;52.168;20.878;2023-06-14T01:26:29;100620.99;;;12.89;64.73
50682;BME280;36779;52.168;20.878;2023-06-14T01:29:04;100623.92;;;12.87;64.62
50682;BME280;36779;52.168;20.878;2023-06-14T01:31:37;100619.38;;;12.84;64.65
50682;BME280;36779;52.168;20.878;2023-06-14T01:34:13;100618.52;;;12.78;64.57
50682;BME280;36779;52.168;20.878;2023-06-14T01:36:52;100614.92;;;12.70;64.48
50682;BME280;36779;52.168;20.878;2023-06-14T01:39:33;100617.66;;;12.69;64.59
50682;BME280;36779;52.168;20.878;2023-06-14T01:42:09;100615.97;;;12.70;64.54
50682;BME280;36779;52.168;20.878;2023-06-14T01:44:47;100614.56;;;12.68;64.67
50682;BME280;36779;52.168;20.878;2023-06-14T01:47:25;100613.00;;;12.65;64.49
50682;BME280;36779;52.168;20.878;2023-06-14T01:49:59;100613.90;;;12.64;64.79
50682;BME280;36779;52.168;20.878;2023-06-14T01:52:38;100615.56;;;12.69;64.79
50682;BME280;36779;52.168;20.878;2023-06-14T01:55:14;100613.67;;;12.80;64.94
50682;BME280;36779;52.168;20.878;2023-06-14T01:57:57;100613.52;;;12.87;64.88
50682;BME280;36779;52.168;20.878;2023-06-14T02:00:33;100613.17;;;12.90;64.95
50682;BME280;36779;52.168;20.878;2023-06-14T02:03:06;100615.19;;;12.88;64.95
50682;BME280;36779;52.168;20.878;2023-06-14T02:05:48;100608.50;;;12.84;64.65
50682;BME280;36779;52.168;20.878;2023-06-14T02:08:27;100602.30;;;12.81;64.64
50682;BME280;36779;52.168;20.878;2023-06-14T02:11:04;100597.87;;;12.82;64.74
50682;BME280;36779;52.168;20.878;2023-06-14T02:13:38;100600.02;;;12.82;64.77
50682;BME280;36779;52.168;20.878;2023-06-14T02:16:11;100595.34;;;12.79;64.71
50682;BME280;36779;52.168;20.878;2023-06-14T02:18:48;100598.45;;;12.78;64.80
50682;BME280;36779;52.168;20.878;2023-06-14T02:21:25;100600.15;;;12.81;65.13
50682;BME280;36779;52.168;20.878;2023-06-14T02:23:58;100598.29;;;12.91;65.18
50682;BME280;36779;52.168;20.878;2023-06-14T02:26:32;100600.54;;;12.88;64.86
50682;BME280;36779;52.168;20.878;2023-06-14T02:29:05;100598.31;;;12.86;64.76
50682;BME280;36779;52.168;20.878;2023-06-14T02:31:41;100597.83;;;12.87;64.89
50682;BME280;36779;52.168;20.878;2023-06-14T02:34:13;100599.09;;;12.90;65.06
50682;BME280;36779;52.168;20.878;2023-06-14T02:36:54;100596.89;;;12.99;65.49
50682;BME280;36779;52.168;20.878;2023-06-14T02:39:32;100605.48;;;13.00;65.10
50682;BME280;36779;52.168;20.878;2023-06-14T02:42:15;100607.02;;;12.99;65.13
50682;BME280;36779;52.168;20.878;2023-06-14T02:44:48;100608.14;;;13.02;64.92
50682;BME280;36779;52.168;20.878;2023-06-14T02:47:26;100606.67;;;13.04;65.35
50682;BME280;36779;52.168;20.878;2023-06-14T02:50:12;100602.86;;;13.04;65.36
50682;BME280;36779;52.168;20.878;2023-06-14T02:52:48;100604.10;;;13.03;65.14
50682;BME280;36779;52.168;20.878;2023-06-14T02:55:20;100604.17;;;12.99;65.04
50682;BME280;36779;52.168;20.878;2023-06-14T02:57:59;100594.55;;;12.98;65.16
50682;BME280;36779;52.168;20.878;2023-06-14T03:00:32;100592.68;;;12.96;65.06
50682;BME280;36779;52.168;20.878;2023-06-14T03:03:09;100576.44;;;12.95;65.11
50682;BME280;36779;52.168;20.878;2023-06-14T03:05:59;100570.01;;;12.95;65.16
50682;BME280;36779;52.168;20.878;2023-06-14T03:08:42;100567.77;;;12.96;65.03
50682;BME280;36779;52.168;20.878;2023-06-14T03:11:17;100570.88;;;12.97;64.93
50682;BME280;36779;52.168;20.878;2023-06-14T03:13:52;100571.59;;;12.97;65.06
50682;BME280;36779;52.168;20.878;2023-06-14T03:16:26;100570.27;;;12.98;65.15
50682;BME280;36779;52.168;20.878;2023-06-14T03:19:01;100573.00;;;12.99;65.25
50682;BME280;36779;52.168;20.878;2023-06-14T03:21:35;100574.51;;;13.00;65.13
50682;BME280;36779;52.168;20.878;2023-06-14T03:24:08;100576.20;;;13.02;65.17
50682;BME280;36779;52.168;20.878;2023-06-14T03:26:41;100578.51;;;13.04;65.43
50682;BME280;36779;52.168;20.878;2023-06-14T03:29:14;100582.04;;;13.05;65.28
50682;BME280;36779;52.168;20.878;2023-06-14T03:32:00;100579.27;;;13.06;65.33
50682;BME280;36779;52.168;20.878;2023-06-14T03:34:48;100580.29;;;13.10;65.20
50682;BME280;36779;52.168;20.878;2023-06-14T03:37:27;100580.76;;;13.12;65.44
50682;BME280;36779;52.168;20.878;2023-06-14T03:40:10;100583.55;;;13.14;65.60
50682;BME280;36779;52.168;20.878;2023-06-14T03:43:08;100585.16;;;13.19;65.43
50682;BME280;36779;52.168;20.878;2023-06-14T03:45:45;100588.20;;;13.22;65.43
50682;BME280;36779;52.168;20.878;2023-06-14T03:48:27;100588.74;;;13.25;65.77
50682;BME280;36779;52.168;20.878;2023-06-14T03:51:01;100589.16;;;13.29;65.46
50682;BME280;36779;52.168;20.878;2023-06-14T03:53:35;100586.45;;;13.31;65.43
50682;BME280;36779;52.168;20.878;2023-06-14T03:56:27;100584.36;;;13.34;65.53
50682;BME280;36779;52.168;20.878;2023-06-14T03:59:11;100591.48;;;13.34;65.38
50682;BME280;36779;52.168;20.878;2023-06-14T04:01:50;100593.55;;;13.36;65.58
50682;BME280;36779;52.168;20.878;2023-06-14T04:04:24;100596.22;;;13.38;65.71
50682;BME280;36779;52.168;20.878;2023-06-14T04:07:02;100594.33;;;13.42;65.65
50682;BME280;36779;52.168;20.878;2023-06-14T04:09:36;100597.17;;;13.49;65.69
50682;BME280;36779;52.168;20.878;2023-06-14T04:12:12;100595.35;;;13.50;65.41
50682;BME280;36779;52.168;20.878;2023-06-14T04:14:44;100596.79;;;13.53;65.58
50682;BME280;36779;52.168;20.878;2023-06-14T04:17:25;100595.39;;;13.54;65.41
50682;BME280;36779;52.168;20.878;2023-06-14T04:20:01;100593.88;;;13.57;65.64
50682;BME280;36779;52.168;20.878;2023-06-14T04:23:10;100592.88;;;13.61;65.53
50682;BME280;36779;52.168;20.878;2023-06-14T04:25:43;100595.22;;;13.67;65.70
50682;BME280;36779;52.168;20.878;2023-06-14T04:28:30;100594.66;;;13.76;65.62
50682;BME280;36779;52.168;20.878;2023-06-14T04:31:03;100592.00;;;13.87;65.52
50682;BME280;36779;52.168;20.878;2023-06-14T04:33:41;100592.86;;;13.97;65.61
50682;BME280;36779;52.168;20.878;2023-06-14T04:36:24;100591.88;;;14.03;65.66
50682;BME280;36779;52.168;20.878;2023-06-14T04:39:04;100595.14;;;14.10;65.54
50682;BME280;36779;52.168;20.878;2023-06-14T04:41:38;100587.56;;;14.19;65.79
50682;BME280;36779;52.168;20.878;2023-06-14T04:44:31;100592.48;;;14.27;65.58
50682;BME280;36779;52.168;20.878;2023-06-14T04:47:13;100588.56;;;14.31;65.58
50682;BME280;36779;52.168;20.878;2023-06-14T04:49:57;100588.02;;;14.36;65.78
50682;BME280;36779;52.168;20.878;2023-06-14T04:52:34;100587.11;;;14.39;65.74
50682;BME280;36779;52.168;20.878;2023-06-14T04:55:09;100589.79;;;14.41;65.60
50682;BME280;36779;52.168;20.878;2023-06-14T04:57:42;100591.29;;;14.40;65.70
50682;BME280;36779;52.168;20.878;2023-06-14T05:00:17;100592.45;;;14.38;65.48
50682;BME280;36779;52.168;20.878;2023-06-14T05:02:50;100589.77;;;14.40;65.49
50682;BME280;36779;52.168;20.878;2023-06-14T05:05:25;100587.11;;;14.39;65.53
50682;BME280;36779;52.168;20.878;2023-06-14T05:07:57;100590.23;;;14.39;65.39
50682;BME280;36779;52.168;20.878;2023-06-14T05:10:29;100588.02;;;14.39;65.68
50682;BME280;36779;52.168;20.878;2023-06-14T05:13:02;100591.20;;;14.40;65.60
50682;BME280;36779;52.168;20.878;2023-06-14T05:15:41;100590.83;;;14.40;65.41
50682;BME280;36779;52.168;20.878;2023-06-14T05:18:15;100594.48;;;14.41;65.56
50682;BME280;36779;52.168;20.878;2023-06-14T05:20:47;100595.34;;;14.44;65.53
50682;BME280;36779;52.168;20.878;2023-06-14T05:23:19;100596.38;;;14.45;65.60
50682;BME280;36779;52.168;20.878;2023-06-14T05:25:56;100600.60;;;14.49;65.76
50682;BME280;36779;52.168;20.878;2023-06-14T05:28:35;100600.70;;;14.50;65.53
50682;BME280;36779;52.168;20.878;2023-06-14T05:31:07;100596.64;;;14.49;65.55
50682;BME280;36779;52.168;20.878;2023-06-14T05:33:41;100599.23;;;14.50;65.77
50682;BME280;36779;52.168;20.878;2023-06-14T05:36:13;100600.27;;;14.52;65.69
50682;BME280;36779;52.168;20.878;2023-06-14T05:38:51;100599.47;;;14.57;65.56
50682;BME280;36779;52.168;20.878;2023-06-14T05:41:36;100605.13;;;14.62;65.76
50682;BME280;36779;52.168;20.878;2023-06-14T05:44:12;100605.68;;;14.69;65.67
50682;BME280;36779;52.168;20.878;2023-06-14T05:46:50;100608.92;;;14.75;65.55
50682;BME280;36779;52.168;20.878;2023-06-14T05:49:24;100608.04;;;14.80;65.51
50682;BME280;36779;52.168;20.878;2023-06-14T05:51:57;100606.38;;;14.83;65.65
50682;BME280;36779;52.168;20.878;2023-06-14T05:54:29;100608.63;;;14.84;65.67
50682;BME280;36779;52.168;20.878;2023-06-14T05:57:05;100610.96;;;14.85;65.74
50682;BME280;36779;52.168;20.878;2023-06-14T05:59:39;100610.45;;;14.90;65.73
50682;BME280;36779;52.168;20.878;2023-06-14T06:02:18;100612.20;;;14.94;65.37
50682;BME280;36779;52.168;20.878;2023-06-14T06:04:59;100609.55;;;14.97;65.53
50682;BME280;36779;52.168;20.878;2023-06-14T06:07:32;100609.83;;;15.02;65.63
50682;BME280;36779;52.168;20.878;2023-06-14T06:10:11;100609.08;;;15.05;65.65
50682;BME280;36779;52.168;20.878;2023-06-14T06:12:44;100611.21;;;15.07;65.64
50682;BME280;36779;52.168;20.878;2023-06-14T06:15:28;100607.25;;;15.13;65.62
50682;BME280;36779;52.168;20.878;2023-06-14T06:18:00;100602.61;;;15.19;65.72
50682;BME280;36779;52.168;20.878;2023-06-14T06:20:38;100604.76;;;15.24;65.68
50682;BME280;36779;52.168;20.878;2023-06-14T06:23:11;100607.58;;;15.35;65.90
50682;BME280;36779;52.168;20.878;2023-06-14T06:25:48;100606.05;;;15.52;65.98
50682;BME280;36779;52.168;20.878;2023-06-14T06:28:21;100602.96;;;15.75;65.84
50682;BME280;36779;52.168;20.878;2023-06-14T06:30:57;100601.90;;;16.04;66.28
50682;BME280;36779;52.168;20.878;2023-06-14T06:33:34;100601.58;;;16.32;66.23
50682;BME280;36779;52.168;20.878;2023-06-14T06:36:12;100601.02;;;16.56;66.01
50682;BME280;36779;52.168;20.878;2023-06-14T06:38:47;100601.31;;;16.74;65.75
50682;BME280;36779;52.168;20.878;2023-06-14T06:41:19;100597.27;;;16.79;65.41
50682;BME280;36779;52.168;20.878;2023-06-14T06:43:58;100603.23;;;16.88;65.42
50682;BME280;36779;52.168;20.878;2023-06-14T06:49:28;100609.08;;;17.18;65.41
50682;BME280;36779;52.168;20.878;2023-06-14T06:52:05;100607.86;;;17.23;65.18
50682;BME280;36779;52.168;20.878;2023-06-14T06:54:48;100608.45;;;17.28;64.95
50682;BME280;36779;52.168;20.878;2023-06-14T06:57:25;100604.70;;;17.32;64.96
50682;BME280;36779;52.168;20.878;2023-06-14T06:59:59;100613.85;;;17.39;64.92
50682;BME280;36779;52.168;20.878;2023-06-14T07:02:32;100612.10;;;17.46;64.87
50682;BME280;36779;52.168;20.878;2023-06-14T07:05:13;100610.88;;;17.40;64.59
50682;BME280;36779;52.168;20.878;2023-06-14T07:07:47;100617.38;;;17.41;64.76
50682;BME280;36779;52.168;20.878;2023-06-14T07:10:19;100620.44;;;17.38;64.41
50682;BME280;36779;52.168;20.878;2023-06-14T07:12:52;100621.06;;;17.40;64.49
50682;BME280;36779;52.168;20.878;2023-06-14T07:15:26;100627.55;;;17.35;64.19
50682;BME280;36779;52.168;20.878;2023-06-14T07:17:59;100629.90;;;17.30;64.28
50682;BME280;36779;52.168;20.878;2023-06-14T07:20:34;100635.01;;;17.31;64.30
50682;BME280;36779;52.168;20.878;2023-06-14T07:23:11;100633.55;;;17.31;64.26
50682;BME280;36779;52.168;20.878;2023-06-14T07:25:46;100633.08;;;17.38;64.42
50682;BME280;36779;52.168;20.878;2023-06-14T07:28:22;100627.26;;;17.45;64.37
50682;BME280;36779;52.168;20.878;2023-06-14T07:31:02;100628.84;;;17.55;64.31
50682;BME280;36779;52.168;20.878;2023-06-14T07:33:41;100632.39;;;17.63;64.34
50682;BME280;36779;52.168;20.878;2023-06-14T07:36:18;100632.30;;;17.72;63.95
50682;BME280;36779;52.168;20.878;2023-06-14T07:39:05;100631.52;;;17.75;63.94
50682;BME280;36779;52.168;20.878;2023-06-14T07:41:45;100635.40;;;17.76;64.01
50682;BME280;36779;52.168;20.878;2023-06-14T07:44:20;100639.66;;;17.84;64.05
50682;BME280;36779;52.168;20.878;2023-06-14T07:46:56;100641.55;;;17.90;63.81
50682;BME280;36779;52.168;20.878;2023-06-14T07:49:36;100640.31;;;17.96;63.90
50682;BME280;36779;52.168;20.878;2023-06-14T07:52:13;100641.02;;;18.05;63.68
50682;BME280;36779;52.168;20.878;2023-06-14T07:54:50;100642.32;;;18.05;63.63
50682;BME280;36779;52.168;20.878;2023-06-14T07:57:22;100642.79;;;18.07;63.39
50682;BME280;36779;52.168;20.878;2023-06-14T08:00:06;100640.34;;;18.12;63.50
50682;BME280;36779;52.168;20.878;2023-06-14T08:02:45;100642.09;;;18.18;63.34
50682;BME280;36779;52.168;20.878;2023-06-14T08:05:18;100642.42;;;18.25;63.29
50682;BME280;36779;52.168;20.878;2023-06-14T08:07:54;100643.35;;;18.35;63.33
50682;BME280;36779;52.168;20.878;2023-06-14T08:10:30;100646.60;;;18.41;63.16
50682;BME280;36779;52.168;20.878;2023-06-14T08:13:07;100646.38;;;18.35;62.91
50682;BME280;36779;52.168;20.878;2023-06-14T08:15:41;100645.67;;;18.33;62.78
50682;BME280;36779;52.168;20.878;2023-06-14T08:18:20;100643.40;;;18.38;63.04
50682;BME280;36779;52.168;20.878;2023-06-14T08:20:56;100645.27;;;18.40;62.80
50682;BME280;36779;52.168;20.878;2023-06-14T08:23:29;100645.72;;;18.35;62.64
50682;BME280;36779;52.168;20.878;2023-06-14T08:26:02;100649.20;;;18.32;62.58
50682;BME280;36779;52.168;20.878;2023-06-14T08:28:37;100646.72;;;18.36;62.69
50682;BME280;36779;52.168;20.878;2023-06-14T08:31:10;100651.58;;;18.44;62.70
50682;BME280;36779;52.168;20.878;2023-06-14T08:33:43;100652.86;;;18.53;62.65
50682;BME280;36779;52.168;20.878;2023-06-14T08:36:17;100651.91;;;18.58;62.59
50682;BME280;36779;52.168;20.878;2023-06-14T08:38:53;100648.14;;;18.71;62.60
50682;BME280;36779;52.168;20.878;2023-06-14T08:41:32;100646.44;;;18.80;62.39
50682;BME280;36779;52.168;20.878;2023-06-14T08:44:05;100642.97;;;18.92;62.34
50682;BME280;36779;52.168;20.878;2023-06-14T08:46:48;100644.09;;;19.09;62.61
50682;BME280;36779;52.168;20.878;2023-06-14T08:49:22;100644.06;;;19.24;62.40
50682;BME280;36779;52.168;20.878;2023-06-14T08:51:59;100638.87;;;19.34;62.23
50682;BME280;36779;52.168;20.878;2023-06-14T08:54:33;100637.60;;;19.48;62.23
50682;BME280;36779;52.168;20.878;2023-06-14T08:57:09;100636.73;;;19.61;62.01
50682;BME280;36779;52.168;20.878;2023-06-14T08:59:51;100636.04;;;19.71;61.94
50682;BME280;36779;52.168;20.878;2023-06-14T09:02:35;100632.32;;;19.81;61.71
50682;BME280;36779;52.168;20.878;2023-06-14T09:05:09;100633.20;;;19.94;61.83
50682;BME280;36779;52.168;20.878;2023-06-14T09:07:46;100625.34;;;20.11;61.95
50682;BME280;36779;52.168;20.878;2023-06-14T09:10:22;100623.57;;;20.47;62.02
50682;BME280;36779;52.168;20.878;2023-06-14T09:12:57;100624.93;;;20.74;61.53
50682;BME280;36779;52.168;20.878;2023-06-14T09:15:32;100626.17;;;20.79;61.16
50682;BME280;36779;52.168;20.878;2023-06-14T09:18:06;100627.29;;;20.96;61.01
50682;BME280;36779;52.168;20.878;2023-06-14T09:20:39;100628.70;;;20.98;60.46
50682;BME280;36779;52.168;20.878;2023-06-14T09:23:12;100630.69;;;21.14;60.49
50682;BME280;36779;52.168;20.878;2023-06-14T09:25:48;100628.94;;;21.33;60.31
50682;BME280;36779;52.168;20.878;2023-06-14T09:28:21;100629.41;;;21.47;60.22
50682;BME280;36779;52.168;20.878;2023-06-14T09:30:58;100630.86;;;21.54;59.93
50682;BME280;36779;52.168;20.878;2023-06-14T09:33:32;100632.63;;;21.63;59.71
50682;BME280;36779;52.168;20.878;2023-06-14T09:36:06;100628.73;;;21.76;59.83
50682;BME280;36779;52.168;20.878;2023-06-14T09:38:43;100631.54;;;21.93;59.66
50682;BME280;36779;52.168;20.878;2023-06-14T09:41:35;100630.52;;;22.04;59.49
50682;BME280;36779;52.168;20.878;2023-06-14T09:44:10;100633.50;;;22.10;59.18
50682;BME280;36779;52.168;20.878;2023-06-14T09:46:51;100635.34;;;21.99;58.46
50682;BME280;36779;52.168;20.878;2023-06-14T09:49:33;100633.82;;;21.85;58.41
50682;BME280;36779;52.168;20.878;2023-06-14T09:52:08;100635.25;;;21.78;58.31
50682;BME280;36779;52.168;20.878;2023-06-14T09:54:50;100640.55;;;21.72;58.21
50682;BME280;36779;52.168;20.878;2023-06-14T09:57:27;100641.05;;;21.60;58.03
50682;BME280;36779;52.168;20.878;2023-06-14T10:00:03;100642.02;;;21.52;58.11
50682;BME280;36779;52.168;20.878;2023-06-14T10:02:44;100641.92;;;21.50;58.01
50682;BME280;36779;52.168;20.878;2023-06-14T10:05:23;100636.92;;;21.50;58.17
50682;BME280;36779;52.168;20.878;2023-06-14T10:08:07;100635.81;;;21.59;58.24
50682;BME280;36779;52.168;20.878;2023-06-14T10:10:41;100628.70;;;21.79;58.37
50682;BME280;36779;52.168;20.878;2023-06-14T10:13:15;100628.27;;;21.99;58.46
50682;BME280;36779;52.168;20.878;2023-06-14T10:15:57;100622.33;;;22.18;58.23
50682;BME280;36779;52.168;20.878;2023-06-14T10:18:38;100623.19;;;22.28;57.92
50682;BME280;36779;52.168;20.878;2023-06-14T10:21:21;100619.17;;;22.40;58.03
50682;BME280;36779;52.168;20.878;2023-06-14T10:24:05;100620.35;;;22.69;58.07
50682;BME280;36779;52.168;20.878;2023-06-14T10:26:51;100619.38;;;22.76;57.55
50682;BME280;36779;52.168;20.878;2023-06-14T10:29:28;100619.88;;;22.92;57.55
50682;BME280;36779;52.168;20.878;2023-06-14T10:32:04;100621.11;;;22.97;57.01
50682;BME280;36779;52.168;20.878;2023-06-14T10:34:43;100622.62;;;22.87;56.70
50682;BME280;36779;52.168;20.878;2023-06-14T10:37:18;100620.61;;;22.71;56.42
50682;BME280;36779;52.168;20.878;2023-06-14T10:39:51;100621.20;;;22.61;56.41
50682;BME280;36779;52.168;20.878;2023-06-14T10:42:31;100618.54;;;22.54;56.30
50682;BME280;36779;52.168;20.878;2023-06-14T10:45:14;100612.05;;;22.55;56.50
50682;BME280;36779;52.168;20.878;2023-06-14T10:47:50;100608.72;;;22.74;56.76
50682;BME280;36779;52.168;20.878;2023-06-14T10:50:30;100613.94;;;22.94;56.59
50682;BME280;36779;52.168;20.878;2023-06-14T10:53:25;100614.58;;;22.96;56.07
50682;BME280;36779;52.168;20.878;2023-06-14T10:56:08;100610.61;;;23.16;56.39
50682;BME280;36779;52.168;20.878;2023-06-14T10:58:42;100610.39;;;23.21;55.71
50682;BME280;36779;52.168;20.878;2023-06-14T11:01:15;100612.25;;;23.11;55.54
50682;BME280;36779;52.168;20.878;2023-06-14T11:03:53;100608.41;;;23.12;55.57
50682;BME280;36779;52.168;20.878;2023-06-14T11:06:30;100608.67;;;23.30;55.53
50682;BME280;36779;52.168;20.878;2023-06-14T11:09:27;100604.87;;;23.42;55.41
50682;BME280;36779;52.168;20.878;2023-06-14T11:12:10;100597.95;;;23.58;55.35
50682;BME280;36779;52.168;20.878;2023-06-14T11:14:47;100601.41;;;23.69;54.88
50682;BME280;36779;52.168;20.878;2023-06-14T11:17:20;100606.09;;;23.69;54.51
50682;BME280;36779;52.168;20.878;2023-06-14T11:20:08;100600.55;;;23.71;54.55
50682;BME280;36779;52.168;20.878;2023-06-14T11:22:42;100597.89;;;23.97;54.56
50682;BME280;36779;52.168;20.878;2023-06-14T11:25:15;100596.91;;;24.01;53.97
50682;BME280;36779;52.168;20.878;2023-06-14T11:27:50;100596.99;;;23.93;53.68
50682;BME280;36779;52.168;20.878;2023-06-14T11:30:29;100598.56;;;23.87;53.67
50682;BME280;36779;52.168;20.878;2023-06-14T11:32:59;100596.54;;;23.86;53.45
50682;BME280;36779;52.168;20.878;2023-06-14T11:35:32;100596.77;;;23.78;53.22
50682;BME280;36779;52.168;20.878;2023-06-14T11:38:11;100597.85;;;23.59;53.23
50682;BME280;36779;52.168;20.878;2023-06-14T11:40:44;100604.56;;;23.48;52.99
50682;BME280;36779;52.168;20.878;2023-06-14T11:43:16;100606.00;;;23.28;52.85
50682;BME280;36779;52.168;20.878;2023-06-14T11:45:50;100601.76;;;23.22;52.95
50682;BME280;36779;52.168;20.878;2023-06-14T11:48:42;100607.02;;;23.25;53.02
50682;BME280;36779;52.168;20.878;2023-06-14T11:51:18;100604.88;;;23.32;53.01
50682;BME280;36779;52.168;20.878;2023-06-14T11:53:51;100605.66;;;23.38;52.90
50682;BME280;36779;52.168;20.878;2023-06-14T11:56:26;100602.29;;;23.35;52.68
50682;BME280;36779;52.168;20.878;2023-06-14T11:59:04;100607.52;;;23.36;52.49
50682;BME280;36779;52.168;20.878;2023-06-14T12:01:49;100604.23;;;23.13;52.09
50682;BME280;36779;52.168;20.878;2023-06-14T12:04:28;100604.17;;;22.98;52.39
50682;BME280;36779;52.168;20.878;2023-06-14T12:07:11;100599.23;;;22.96;52.26
50682;BME280;36779;52.168;20.878;2023-06-14T12:10:05;100593.93;;;22.83;52.10
50682;BME280;36779;52.168;20.878;2023-06-14T12:12:40;100593.94;;;22.71;52.08
50682;BME280;36779;52.168;20.878;2023-06-14T12:15:15;100593.41;;;22.57;51.95
50682;BME280;36779;52.168;20.878;2023-06-14T12:17:51;100593.25;;;22.53;52.05
50682;BME280;36779;52.168;20.878;2023-06-14T12:20:30;100591.91;;;22.52;52.12
50682;BME280;36779;52.168;20.878;2023-06-14T12:23:04;100591.01;;;22.58;52.09
50682;BME280;36779;52.168;20.878;2023-06-14T12:25:40;100591.34;;;22.62;52.08
50682;BME280;36779;52.168;20.878;2023-06-14T12:28:17;100588.43;;;22.56;51.59
50682;BME280;36779;52.168;20.878;2023-06-14T12:30:50;100583.64;;;22.47;51.50
50682;BME280;36779;52.168;20.878;2023-06-14T12:33:26;100584.39;;;22.37;51.47
50682;BME280;36779;52.168;20.878;2023-06-14T12:36:05;100584.62;;;22.33;51.50
50682;BME280;36779;52.168;20.878;2023-06-14T12:38:38;100581.86;;;22.26;51.35
50682;BME280;36779;52.168;20.878;2023-06-14T12:41:11;100583.74;;;22.03;51.12
50682;BME280;36779;52.168;20.878;2023-06-14T12:43:45;100583.09;;;21.77;51.07
50682;BME280;36779;52.168;20.878;2023-06-14T12:46:18;100580.13;;;21.68;51.20
50682;BME280;36779;52.168;20.878;2023-06-14T12:48:52;100578.33;;;21.66;51.19
50682;BME280;36779;52.168;20.878;2023-06-14T12:51:27;100577.02;;;21.67;51.40
50682;BME280;36779;52.168;20.878;2023-06-14T12:54:04;100572.52;;;21.81;51.55
50682;BME280;36779;52.168;20.878;2023-06-14T12:56:37;100579.66;;;21.92;51.31
50682;BME280;36779;52.168;20.878;2023-06-14T12:59:10;100575.23;;;21.86;51.01
50682;BME280;36779;52.168;20.878;2023-06-14T13:01:47;100568.71;;;21.90;51.25
50682;BME280;36779;52.168;20.878;2023-06-14T13:04:26;100563.77;;;22.01;51.14
50682;BME280;36779;52.168;20.878;2023-06-14T13:06:58;100563.05;;;22.11;51.07
50682;BME280;36779;52.168;20.878;2023-06-14T13:09:36;100564.55;;;22.29;51.22
50682;BME280;36779;52.168;20.878;2023-06-14T13:12:11;100561.42;;;22.46;51.08
50682;BME280;36779;52.168;20.878;2023-06-14T13:14:49;100564.83;;;22.60;51.00
50682;BME280;36779;52.168;20.878;2023-06-14T13:17:22;100560.35;;;22.71;50.74
50682;BME280;36779;52.168;20.878;2023-06-14T13:19:57;100563.95;;;22.81;50.77
50682;BME280;36779;52.168;20.878;2023-06-14T13:22:32;100567.05;;;22.85;50.38
50682;BME280;36779;52.168;20.878;2023-06-14T13:25:09;100563.63;;;22.71;50.10
50682;BME280;36779;52.168;20.878;2023-06-14T13:27:41;100560.40;;;22.61;49.98
50682;BME280;36779;52.168;20.878;2023-06-14T13:30:22;100564.64;;;22.45;49.66
50682;BME280;36779;52.168;20.878;2023-06-14T13:32:55;100564.59;;;22.22;49.75
50682;BME280;36779;52.168;20.878;2023-06-14T13:35:28;100563.07;;;22.05;49.60